Time;durP1;ratioP1;P1;durP2;ratioP2;P2;SDS_P1;SDS_P2;PMS_P1;PMS_P2;Temp;Humidity;BMP_temperature;BMP_pressure;BME280_temperature;BME280_humidity;BME280_pressure;Samples;Min_cycle;Max_cycle;Signal;HPM_P1;HPM_P2
2022/01/29 00:00:37;;;;;;;38.33;23.13;;;;;;;;;;5028351;28;20194;-67
2022/01/29 00:03:03;;;;;;;38.00;22.33;;;;;;;;;;5030028;28;20220;-69
2022/01/29 00:05:28;;;;;;;40.10;23.43;;;;;;;;;;5028508;28;20651;-69
2022/01/29 00:07:53;;;;;;;38.13;22.07;;;;;;;;;;5027722;28;20178;-69
2022/01/29 00:10:19;;;;;;;43.10;24.53;;;;;;;;;;5028850;28;20175;-68
2022/01/29 00:12:44;;;;;;;39.50;23.37;;;;;;;;;;5011863;28;20209;-69
2022/01/29 00:15:09;;;;;;;43.83;23.60;;;;;;;;;;5028752;28;20701;-68
2022/01/29 00:17:35;;;;;;;45.20;23.97;;;;;;;;;;5028610;28;20182;-68
2022/01/29 00:20:00;;;;;;;44.43;24.83;;;;;;;;;;5031702;28;20204;-69
2022/01/29 00:22:25;;;;;;;52.77;25.07;;;;;;;;;;5039357;28;20206;-67
2022/01/29 00:24:50;;;;;;;41.20;23.70;;;;;;;;;;5036771;28;20276;-68
2022/01/29 00:27:16;;;;;;;42.00;24.30;;;;;;;;;;5023828;28;20186;-68
2022/01/29 00:29:43;;;;;;;42.77;23.77;;;;;;;;;;5016890;28;20200;-68
2022/01/29 00:32:09;;;;;;;42.13;24.23;;;;;;;;;;5017603;28;20233;-68
2022/01/29 00:34:34;;;;;;;37.63;24.83;;;;;;;;;;5004356;28;20603;-68
2022/01/29 00:37:00;;;;;;;39.73;24.43;;;;;;;;;;5029870;28;20178;-69
2022/01/29 00:39:25;;;;;;;37.33;22.67;;;;;;;;;;5029515;28;20628;-68
2022/01/29 00:41:50;;;;;;;45.17;23.80;;;;;;;;;;5028354;28;20230;-69
2022/01/29 00:44:15;;;;;;;40.67;23.13;;;;;;;;;;5026588;28;20372;-68
2022/01/29 00:46:41;;;;;;;42.60;23.73;;;;;;;;;;5026835;28;20628;-68
2022/01/29 00:49:11;;;;;;;44.60;24.17;;;;;;;;;;5009724;28;20212;-68
2022/01/29 00:51:36;;;;;;;49.03;25.40;;;;;;;;;;5027962;28;20702;-69
2022/01/29 00:54:01;;;;;;;44.70;24.03;;;;;;;;;;5029702;28;20175;-68
2022/01/29 00:56:27;;;;;;;40.53;22.47;;;;;;;;;;5028231;28;20194;-69
2022/01/29 00:58:52;;;;;;;42.10;22.17;;;;;;;;;;5029404;28;20632;-68
2022/01/29 01:03:56;;;;;;;39.10;22.47;;;;;;;;;;5044558;28;20233;-70
2022/01/29 01:06:21;;;;;;;46.00;23.93;;;;;;;;;;5048233;28;20181;-70
2022/01/29 01:08:46;;;;;;;39.97;21.30;;;;;;;;;;5041824;28;20177;-70
2022/01/29 01:11:12;;;;;;;40.97;20.80;;;;;;;;;;5051159;28;20192;-70
2022/01/29 01:13:37;;;;;;;39.03;21.13;;;;;;;;;;5049662;28;20259;-70
2022/01/29 01:16:02;;;;;;;41.00;22.80;;;;;;;;;;5050193;28;20177;-70
2022/01/29 01:18:27;;;;;;;33.77;20.07;;;;;;;;;;5050188;28;20534;-70
2022/01/29 01:20:53;;;;;;;35.73;23.03;;;;;;;;;;5045167;28;20261;-70
2022/01/29 01:23:18;;;;;;;40.33;21.03;;;;;;;;;;5028493;28;20201;-71
2022/01/29 01:25:44;;;;;;;34.20;22.87;;;;;;;;;;5044580;28;20272;-71
2022/01/29 01:28:09;;;;;;;40.33;22.93;;;;;;;;;;5049701;28;20653;-70
2022/01/29 01:30:36;;;;;;;38.60;21.53;;;;;;;;;;5046240;28;20177;-70
2022/01/29 01:33:02;;;;;;;36.17;22.27;;;;;;;;;;5053068;28;20584;-71
2022/01/29 01:35:32;;;;;;;43.57;23.00;;;;;;;;;;5036263;28;21000;-70
2022/01/29 01:38:08;;;;;;;36.87;21.40;;;;;;;;;;5044211;28;20189;-71
2022/01/29 01:40:33;;;;;;;35.63;21.47;;;;;;;;;;5039458;28;20366;-71
2022/01/29 01:43:00;;;;;;;35.13;19.80;;;;;;;;;;5044849;28;20351;-71
2022/01/29 01:45:26;;;;;;;41.00;20.90;;;;;;;;;;5043962;28;20217;-70
2022/01/29 01:47:52;;;;;;;34.93;20.70;;;;;;;;;;5045491;28;20227;-71
2022/01/29 01:50:17;;;;;;;31.57;20.70;;;;;;;;;;5051719;28;20173;-71
2022/01/29 01:52:42;;;;;;;32.17;19.90;;;;;;;;;;5045051;28;20845;-71
2022/01/29 01:55:07;;;;;;;29.40;17.90;;;;;;;;;;5023535;28;20572;-71
2022/01/29 01:57:33;;;;;;;27.87;16.97;;;;;;;;;;5049450;28;20217;-71
2022/01/29 01:59:58;;;;;;;27.73;17.37;;;;;;;;;;5047245;28;20175;-70
2022/01/29 02:02:23;;;;;;;26.50;16.77;;;;;;;;;;5052215;28;20209;-71
2022/01/29 02:04:49;;;;;;;29.60;16.93;;;;;;;;;;5036764;28;20682;-71
2022/01/29 02:07:14;;;;;;;26.40;16.37;;;;;;;;;;5015526;28;20244;-71
2022/01/29 02:09:39;;;;;;;24.30;15.93;;;;;;;;;;5046438;28;20182;-71
2022/01/29 02:12:05;;;;;;;24.70;14.83;;;;;;;;;;5037870;28;20204;-71
2022/01/29 02:14:34;;;;;;;28.27;16.80;;;;;;;;;;5048771;28;20260;-71
2022/01/29 02:17:00;;;;;;;28.60;15.77;;;;;;;;;;5052060;28;20589;-71
2022/01/29 02:19:25;;;;;;;26.30;15.97;;;;;;;;;;5050794;28;20178;-71
2022/01/29 02:21:51;;;;;;;21.10;15.53;;;;;;;;;;5036663;28;20581;-71
2022/01/29 02:24:16;;;;;;;25.17;16.60;;;;;;;;;;5044914;28;20222;-71
2022/01/29 02:26:41;;;;;;;24.97;15.63;;;;;;;;;;5033720;28;20193;-71
2022/01/29 02:29:06;;;;;;;22.57;14.17;;;;;;;;;;5039022;28;20659;-71
2022/01/29 02:31:31;;;;;;;22.73;15.80;;;;;;;;;;5034198;28;20220;-71
2022/01/29 02:33:57;;;;;;;23.47;15.60;;;;;;;;;;5049984;28;20264;-71
2022/01/29 02:36:22;;;;;;;24.27;15.93;;;;;;;;;;5038115;28;20183;-71
2022/01/29 02:38:47;;;;;;;27.40;16.77;;;;;;;;;;5042851;28;20632;-71
2022/01/29 02:41:13;;;;;;;24.57;16.13;;;;;;;;;;5039545;28;20677;-71
2022/01/29 02:43:46;;;;;;;26.80;15.80;;;;;;;;;;5037658;28;20694;-71
2022/01/29 02:46:29;;;;;;;29.97;16.30;;;;;;;;;;5045174;28;20170;-71
2022/01/29 02:48:56;;;;;;;31.73;17.20;;;;;;;;;;5032421;28;20166;-71
2022/01/29 02:51:22;;;;;;;27.40;17.30;;;;;;;;;;5038182;28;20178;-71
2022/01/29 02:53:48;;;;;;;29.40;17.63;;;;;;;;;;5046951;28;20172;-71
2022/01/29 02:56:13;;;;;;;34.37;17.37;;;;;;;;;;5042833;28;20208;-71
2022/01/29 02:58:38;;;;;;;30.33;18.30;;;;;;;;;;5032265;28;20197;-71
2022/01/29 03:01:04;;;;;;;29.90;17.60;;;;;;;;;;5032584;28;20171;-69
2022/01/29 03:03:29;;;;;;;26.83;17.10;;;;;;;;;;5033441;28;20213;-71
2022/01/29 03:05:54;;;;;;;35.63;17.07;;;;;;;;;;5031969;28;20202;-71
2022/01/29 03:08:20;;;;;;;29.67;17.87;;;;;;;;;;5046452;28;20176;-72
2022/01/29 03:10:48;;;;;;;30.03;17.50;;;;;;;;;;5036073;28;20205;-69
2022/01/29 03:13:14;;;;;;;32.83;16.73;;;;;;;;;;5035023;28;20340;-72
2022/01/29 03:15:39;;;;;;;44.20;17.53;;;;;;;;;;5032913;28;20214;-70
2022/01/29 03:18:04;;;;;;;30.50;15.93;;;;;;;;;;5042669;28;20209;-70
2022/01/29 03:20:30;;;;;;;32.57;15.30;;;;;;;;;;5042390;28;20185;-70
2022/01/29 03:22:55;;;;;;;31.27;16.13;;;;;;;;;;5025128;28;20206;-70
2022/01/29 03:25:20;;;;;;;42.40;17.50;;;;;;;;;;5018440;28;20241;-71
2022/01/29 03:27:46;;;;;;;33.47;16.47;;;;;;;;;;5040695;28;20273;-70
2022/01/29 03:30:11;;;;;;;29.37;16.37;;;;;;;;;;5034055;28;20177;-70
2022/01/29 03:32:36;;;;;;;28.97;16.17;;;;;;;;;;5030340;28;20675;-73
2022/01/29 03:35:02;;;;;;;29.27;15.63;;;;;;;;;;5040589;28;20573;-71
2022/01/29 03:37:27;;;;;;;28.23;14.57;;;;;;;;;;5044012;28;20189;-71
2022/01/29 03:39:57;;;;;;;33.37;14.30;;;;;;;;;;5041291;28;20212;-71
2022/01/29 03:42:23;;;;;;;28.77;14.37;;;;;;;;;;5047654;28;20204;-70
2022/01/29 03:44:49;;;;;;;27.00;16.40;;;;;;;;;;5031756;28;20210;-71
2022/01/29 03:47:14;;;;;;;20.87;13.40;;;;;;;;;;5036395;28;20178;-71
2022/01/29 03:49:39;;;;;;;29.33;14.53;;;;;;;;;;5043374;28;20729;-71
2022/01/29 03:52:04;;;;;;;31.43;15.07;;;;;;;;;;5046710;28;20339;-71
2022/01/29 03:54:29;;;;;;;23.77;14.67;;;;;;;;;;5040281;28;20184;-70
2022/01/29 03:56:55;;;;;;;34.13;14.00;;;;;;;;;;5034048;28;24666;-70
2022/01/29 03:59:20;;;;;;;25.97;13.73;;;;;;;;;;5045859;28;20255;-70
2022/01/29 04:01:45;;;;;;;22.40;13.50;;;;;;;;;;5043974;28;20201;-71
2022/01/29 04:04:10;;;;;;;34.57;13.80;;;;;;;;;;5035179;28;20260;-71
2022/01/29 04:06:36;;;;;;;27.57;13.67;;;;;;;;;;5022065;28;20647;-71
2022/01/29 04:09:05;;;;;;;27.10;13.17;;;;;;;;;;5036895;28;20186;-71
2022/01/29 04:11:30;;;;;;;28.40;13.73;;;;;;;;;;5017363;28;20616;-71
2022/01/29 04:13:55;;;;;;;22.93;12.30;;;;;;;;;;5033668;28;20189;-70
2022/01/29 04:16:21;;;;;;;23.10;12.20;;;;;;;;;;5023686;28;20232;-71
2022/01/29 04:18:46;;;;;;;29.47;12.80;;;;;;;;;;5032524;28;20191;-70
2022/01/29 04:21:11;;;;;;;27.50;13.23;;;;;;;;;;5039556;28;20577;-71
2022/01/29 04:23:36;;;;;;;25.60;12.70;;;;;;;;;;5036377;28;20207;-71
2022/01/29 04:26:03;;;;;;;31.77;12.50;;;;;;;;;;5046380;28;20173;-71
2022/01/29 04:28:32;;;;;;;23.13;11.83;;;;;;;;;;5036948;28;20647;-71
2022/01/29 04:31:02;;;;;;;20.63;12.03;;;;;;;;;;5047425;28;20170;-71
2022/01/29 04:33:30;;;;;;;27.27;12.60;;;;;;;;;;5022350;28;20190;-71
2022/01/29 04:35:59;;;;;;;19.60;11.80;;;;;;;;;;5036240;28;20260;-71
2022/01/29 04:38:25;;;;;;;22.50;11.40;;;;;;;;;;5038046;28;20228;-70
2022/01/29 04:40:51;;;;;;;20.87;11.17;;;;;;;;;;5036800;28;20739;-70
2022/01/29 04:43:16;;;;;;;20.80;11.20;;;;;;;;;;5041628;28;20236;-70
2022/01/29 04:45:41;;;;;;;19.03;10.63;;;;;;;;;;5031155;28;20352;-71
2022/01/29 04:48:07;;;;;;;19.70;11.67;;;;;;;;;;5042220;28;20600;-70
2022/01/29 04:50:32;;;;;;;24.83;11.73;;;;;;;;;;5049450;28;20230;-70
2022/01/29 04:52:57;;;;;;;16.80;10.60;;;;;;;;;;5042966;28;20193;-71
2022/01/29 04:55:22;;;;;;;23.20;11.53;;;;;;;;;;5039169;28;20182;-70
2022/01/29 04:57:47;;;;;;;20.53;10.90;;;;;;;;;;5031197;28;20493;-71
2022/01/29 05:00:19;;;;;;;24.13;10.83;;;;;;;;;;5039163;28;20564;-70
2022/01/29 05:02:48;;;;;;;20.47;11.03;;;;;;;;;;5041768;28;20721;-70
2022/01/29 05:05:13;;;;;;;20.07;11.37;;;;;;;;;;5046114;28;20285;-70
2022/01/29 05:07:39;;;;;;;21.60;10.70;;;;;;;;;;5045969;28;20254;-70
2022/01/29 05:10:04;;;;;;;20.77;11.73;;;;;;;;;;5045316;28;20178;-70
2022/01/29 05:12:40;;;;;;;20.60;11.40;;;;;;;;;;5039805;28;20189;-70
2022/01/29 05:15:15;;;;;;;16.37;10.13;;;;;;;;;;5025316;28;20281;-71
2022/01/29 05:28:36;;;;;;;23.27;10.00;;;;;;;;;;5039491;28;20579;-70
2022/01/29 05:31:01;;;;;;;20.83;10.47;;;;;;;;;;5040582;28;20181;-70
2022/01/29 05:33:26;;;;;;;15.00;9.87;;;;;;;;;;5024585;28;20649;-70
2022/01/29 05:35:51;;;;;;;18.63;10.00;;;;;;;;;;5038609;28;20246;-71
2022/01/29 05:38:16;;;;;;;16.80;10.33;;;;;;;;;;5052163;28;20635;-70
2022/01/29 05:40:42;;;;;;;19.77;10.37;;;;;;;;;;5045260;28;20182;-71
2022/01/29 05:43:07;;;;;;;21.73;9.30;;;;;;;;;;5044858;28;20209;-70
2022/01/29 05:45:32;;;;;;;15.23;9.77;;;;;;;;;;5040661;28;20190;-71
2022/01/29 05:47:57;;;;;;;16.60;9.83;;;;;;;;;;5038073;28;20182;-70
2022/01/29 05:50:22;;;;;;;16.63;9.07;;;;;;;;;;5027864;28;20185;-71
2022/01/29 05:52:47;;;;;;;21.43;9.60;;;;;;;;;;5035760;28;20198;-71
2022/01/29 05:55:13;;;;;;;15.33;8.97;;;;;;;;;;5017918;28;20707;-70
2022/01/29 05:57:38;;;;;;;21.73;9.97;;;;;;;;;;5044508;28;20249;-70
2022/01/29 06:00:04;;;;;;;16.13;9.07;;;;;;;;;;5039233;28;20580;-71
2022/01/29 06:02:29;;;;;;;21.93;7.93;;;;;;;;;;5038275;28;20304;-71
2022/01/29 06:04:54;;;;;;;18.13;8.90;;;;;;;;;;5036511;28;20292;-70
2022/01/29 06:07:20;;;;;;;17.77;8.63;;;;;;;;;;5028400;28;20181;-70
2022/01/29 06:09:45;;;;;;;18.30;8.47;;;;;;;;;;5052696;28;20413;-70
2022/01/29 06:12:10;;;;;;;21.97;7.87;;;;;;;;;;5041717;28;20236;-70
2022/01/29 06:14:35;;;;;;;19.93;8.53;;;;;;;;;;5023978;28;20213;-71
2022/01/29 06:17:00;;;;;;;21.53;10.03;;;;;;;;;;5043183;28;20192;-70
2022/01/29 06:19:26;;;;;;;19.43;8.73;;;;;;;;;;5038838;28;20244;-71
2022/01/29 06:21:51;;;;;;;15.60;9.40;;;;;;;;;;5041060;28;20209;-71
2022/01/29 06:24:16;;;;;;;17.33;8.97;;;;;;;;;;5032942;28;20211;-71
2022/01/29 06:26:41;;;;;;;17.40;8.70;;;;;;;;;;5051869;28;20647;-71
2022/01/29 06:29:06;;;;;;;17.40;9.43;;;;;;;;;;5032271;28;20216;-70
2022/01/29 06:31:32;;;;;;;19.67;9.93;;;;;;;;;;5032806;28;20617;-70
2022/01/29 06:33:57;;;;;;;17.20;9.67;;;;;;;;;;5040836;28;20223;-70
2022/01/29 06:36:22;;;;;;;20.27;10.10;;;;;;;;;;5048025;28;20185;-70
2022/01/29 06:38:47;;;;;;;17.10;9.33;;;;;;;;;;5042768;28;20182;-71
2022/01/29 06:41:12;;;;;;;19.37;10.13;;;;;;;;;;5049021;28;20272;-71
2022/01/29 06:43:37;;;;;;;25.70;12.10;;;;;;;;;;5033430;28;20198;-70
2022/01/29 06:46:03;;;;;;;17.27;9.83;;;;;;;;;;5028879;28;20576;-71
2022/01/29 06:48:28;;;;;;;17.20;10.40;;;;;;;;;;5047857;28;20200;-71
2022/01/29 06:50:53;;;;;;;17.37;10.13;;;;;;;;;;5033282;28;20244;-71
2022/01/29 06:53:19;;;;;;;18.30;9.90;;;;;;;;;;5050703;28;20201;-70
2022/01/29 06:55:44;;;;;;;23.87;11.27;;;;;;;;;;5036060;28;20598;-70
2022/01/29 06:58:09;;;;;;;24.77;11.00;;;;;;;;;;5041221;28;20189;-70
2022/01/29 07:00:35;;;;;;;21.13;10.63;;;;;;;;;;5041582;28;20240;-71
2022/01/29 07:03:00;;;;;;;22.53;11.23;;;;;;;;;;5050749;22;20771;-69
2022/01/29 07:05:25;;;;;;;21.87;11.13;;;;;;;;;;5025995;28;20206;-67
2022/01/29 07:07:50;;;;;;;17.87;10.63;;;;;;;;;;5027633;28;20174;-68
2022/01/29 07:10:17;;;;;;;19.00;10.57;;;;;;;;;;5030210;28;20181;-68
2022/01/29 07:12:42;;;;;;;20.90;10.30;;;;;;;;;;5030442;28;20217;-68
2022/01/29 07:15:08;;;;;;;28.87;10.50;;;;;;;;;;5029191;28;20640;-67
2022/01/29 07:17:33;;;;;;;19.83;10.03;;;;;;;;;;5020560;28;20679;-68
2022/01/29 07:19:58;;;;;;;23.77;10.90;;;;;;;;;;5027172;28;20241;-69
2022/01/29 07:22:24;;;;;;;20.53;10.30;;;;;;;;;;5018788;28;20206;-68
2022/01/29 07:24:49;;;;;;;15.20;9.27;;;;;;;;;;5015736;28;20628;-68
2022/01/29 07:27:15;;;;;;;17.60;10.20;;;;;;;;;;5025411;28;20178;-71
2022/01/29 07:29:40;;;;;;;17.43;9.87;;;;;;;;;;5019585;28;20178;-69
2022/01/29 07:32:05;;;;;;;20.13;8.47;;;;;;;;;;5029609;28;20198;-68
2022/01/29 07:34:31;;;;;;;21.73;9.13;;;;;;;;;;5026054;28;20274;-70
2022/01/29 07:36:56;;;;;;;17.30;9.43;;;;;;;;;;5029838;28;20662;-68
2022/01/29 07:39:22;;;;;;;18.93;9.03;;;;;;;;;;5012499;28;20660;-68
2022/01/29 07:41:48;;;;;;;21.03;9.77;;;;;;;;;;4998599;28;20182;-69
2022/01/29 07:44:13;;;;;;;19.10;9.37;;;;;;;;;;5022397;28;20216;-69
2022/01/29 07:46:39;;;;;;;18.70;9.10;;;;;;;;;;5027581;28;20170;-68
2022/01/29 07:49:04;;;;;;;22.80;9.97;;;;;;;;;;5030302;28;20174;-68
2022/01/29 07:51:29;;;;;;;18.70;8.40;;;;;;;;;;5028347;28;20240;-71
2022/01/29 07:53:54;;;;;;;14.57;8.40;;;;;;;;;;5024629;28;20313;-70
2022/01/29 07:56:20;;;;;;;19.87;9.03;;;;;;;;;;5020924;28;20214;-70
2022/01/29 07:58:45;;;;;;;18.17;8.83;;;;;;;;;;5017417;28;20655;-70
2022/01/29 08:01:11;;;;;;;18.27;8.77;;;;;;;;;;5017931;28;20182;-70
2022/01/29 08:03:37;;;;;;;22.73;10.27;;;;;;;;;;5022453;28;20329;-70
2022/01/29 08:06:02;;;;;;;21.87;8.50;;;;;;;;;;5026912;28;20239;-71
2022/01/29 08:08:27;;;;;;;18.33;9.37;;;;;;;;;;5027275;28;20644;-68
2022/01/29 08:10:52;;;;;;;19.77;9.13;;;;;;;;;;5024321;28;20535;-68
2022/01/29 08:13:18;;;;;;;15.07;8.50;;;;;;;;;;5003985;28;20198;-70
2022/01/29 08:15:43;;;;;;;12.60;8.47;;;;;;;;;;5010189;28;20214;-69
2022/01/29 08:18:09;;;;;;;15.10;8.23;;;;;;;;;;5017159;28;20178;-70
2022/01/29 08:20:34;;;;;;;18.27;9.17;;;;;;;;;;5008122;28;20564;-70
2022/01/29 08:22:59;;;;;;;21.33;9.53;;;;;;;;;;5028364;28;20198;-71
2022/01/29 08:25:24;;;;;;;20.53;8.10;;;;;;;;;;5026602;28;20194;-67
2022/01/29 08:27:49;;;;;;;23.83;8.10;;;;;;;;;;5009223;28;20628;-71
2022/01/29 08:30:15;;;;;;;18.37;7.83;;;;;;;;;;5010385;28;20175;-67
2022/01/29 08:32:43;;;;;;;16.33;9.53;;;;;;;;;;5010376;28;20208;-68
2022/01/29 08:35:13;;;;;;;16.20;8.27;;;;;;;;;;5013170;28;20192;-71
2022/01/29 08:37:39;;;;;;;16.13;7.90;;;;;;;;;;5015673;28;20285;-68
2022/01/29 08:40:05;;;;;;;15.43;7.43;;;;;;;;;;5013768;28;20443;-67
2022/01/29 08:42:30;;;;;;;22.03;7.40;;;;;;;;;;5008904;28;20230;-70
2022/01/29 08:44:55;;;;;;;12.37;7.10;;;;;;;;;;5012651;28;20225;-70
2022/01/29 08:47:20;;;;;;;14.10;8.30;;;;;;;;;;5011852;28;20176;-70
2022/01/29 08:49:45;;;;;;;14.43;7.20;;;;;;;;;;5008198;28;20624;-68
2022/01/29 08:52:11;;;;;;;20.07;8.83;;;;;;;;;;5006602;28;20222;-67
2022/01/29 08:54:36;;;;;;;10.00;5.90;;;;;;;;;;4998349;28;20286;-69
2022/01/29 08:57:01;;;;;;;15.60;7.03;;;;;;;;;;5010756;28;20261;-69
2022/01/29 08:59:26;;;;;;;18.40;6.53;;;;;;;;;;5014204;28;20171;-69
2022/01/29 09:01:51;;;;;;;14.33;5.63;;;;;;;;;;5025225;28;20189;-68
2022/01/29 09:04:17;;;;;;;11.10;5.40;;;;;;;;;;5028391;28;20202;-69
2022/01/29 09:06:42;;;;;;;14.20;5.77;;;;;;;;;;5028303;28;20174;-69
2022/01/29 09:09:07;;;;;;;13.57;5.47;;;;;;;;;;5024404;28;20229;-69
2022/01/29 09:11:34;;;;;;;11.57;5.47;;;;;;;;;;5027745;28;20556;-68
2022/01/29 09:13:59;;;;;;;19.83;7.27;;;;;;;;;;5025881;28;20272;-69
2022/01/29 09:16:24;;;;;;;11.10;5.50;;;;;;;;;;5028566;28;20213;-68
2022/01/29 09:18:49;;;;;;;13.83;4.87;;;;;;;;;;5025732;28;20174;-69
2022/01/29 09:21:14;;;;;;;9.80;4.43;;;;;;;;;;5024607;28;20202;-68
2022/01/29 09:23:41;;;;;;;9.10;4.70;;;;;;;;;;5024054;28;20289;-69
2022/01/29 09:26:06;;;;;;;8.03;4.87;;;;;;;;;;5025536;28;20202;-69
2022/01/29 09:28:31;;;;;;;9.80;4.57;;;;;;;;;;5024370;28;20182;-69
2022/01/29 09:30:56;;;;;;;12.87;5.03;;;;;;;;;;5025300;28;20174;-70
2022/01/29 09:33:22;;;;;;;11.00;3.83;;;;;;;;;;5029955;28;20668;-68
2022/01/29 09:35:47;;;;;;;8.47;4.10;;;;;;;;;;5030503;28;20178;-69
2022/01/29 09:38:12;;;;;;;8.63;4.30;;;;;;;;;;5026622;28;20208;-68
2022/01/29 09:40:40;;;;;;;11.87;4.87;;;;;;;;;;5026661;28;20838;-69
2022/01/29 09:43:08;;;;;;;13.93;4.40;;;;;;;;;;5025250;28;20745;-69
2022/01/29 09:45:33;;;;;;;7.23;4.17;;;;;;;;;;5027302;28;20620;-69
2022/01/29 09:48:02;;;;;;;12.77;4.33;;;;;;;;;;5024767;28;20634;-69
2022/01/29 09:50:28;;;;;;;11.63;4.17;;;;;;;;;;5028173;28;20566;-68
2022/01/29 09:52:53;;;;;;;11.50;4.00;;;;;;;;;;5026613;28;20249;-69
2022/01/29 09:55:18;;;;;;;9.80;3.70;;;;;;;;;;5030989;28;20194;-69
2022/01/29 09:57:43;;;;;;;12.97;4.30;;;;;;;;;;5028253;28;20193;-68
2022/01/29 10:00:10;;;;;;;12.70;4.10;;;;;;;;;;5009944;28;20605;-69
2022/01/29 10:02:35;;;;;;;14.90;3.73;;;;;;;;;;4995046;28;20222;-68
2022/01/29 10:05:01;;;;;;;10.80;3.40;;;;;;;;;;5000798;28;20264;-69
2022/01/29 10:07:28;;;;;;;10.20;4.57;;;;;;;;;;5018523;28;20205;-68
2022/01/29 10:09:53;;;;;;;9.00;3.20;;;;;;;;;;5012988;28;20610;-69
2022/01/29 10:12:18;;;;;;;12.27;3.27;;;;;;;;;;5013190;28;20206;-69
2022/01/29 10:15:03;;;;;;;13.80;3.03;;;;;;;;;;5012773;28;20183;-69
2022/01/29 10:17:39;;;;;;;7.43;2.73;;;;;;;;;;5016535;28;20182;-69
2022/01/29 10:20:11;;;;;;;14.23;3.60;;;;;;;;;;5022283;28;20177;-68
2022/01/29 10:22:37;;;;;;;11.27;3.70;;;;;;;;;;5015120;28;20280;-68
2022/01/29 10:25:06;;;;;;;10.93;2.90;;;;;;;;;;5002153;28;20285;-68
2022/01/29 10:27:31;;;;;;;7.70;3.07;;;;;;;;;;5011996;28;20205;-68
2022/01/29 10:30:00;;;;;;;8.00;2.57;;;;;;;;;;5010768;28;20207;-68
2022/01/29 10:32:26;;;;;;;5.60;2.47;;;;;;;;;;5014376;28;20236;-69
2022/01/29 10:34:58;;;;;;;7.23;2.80;;;;;;;;;;5011651;28;20237;-68
2022/01/29 10:37:25;;;;;;;7.43;2.30;;;;;;;;;;5016031;28;20282;-68
2022/01/29 10:39:55;;;;;;;7.20;2.30;;;;;;;;;;5014966;28;20187;-68
2022/01/29 10:42:21;;;;;;;10.00;3.47;;;;;;;;;;5017943;28;20640;-69
2022/01/29 10:44:47;;;;;;;10.73;2.30;;;;;;;;;;5007915;28;20293;-67
2022/01/29 10:47:13;;;;;;;6.30;1.70;;;;;;;;;;5015389;28;20615;-69
2022/01/29 10:49:44;;;;;;;7.53;1.95;;;;;;;;;;4999223;28;20270;-70
2022/01/29 10:52:13;;;;;;;7.55;2.22;;;;;;;;;;5001502;28;20191;-68
2022/01/29 10:54:39;;;;;;;7.07;1.70;;;;;;;;;;5008246;28;20406;-68
2022/01/29 10:57:08;;;;;;;6.43;2.15;;;;;;;;;;5014070;28;20182;-69
2022/01/29 10:59:44;;;;;;;7.07;2.00;;;;;;;;;;5013909;28;20255;-68
2022/01/29 11:02:11;;;;;;;10.98;2.15;;;;;;;;;;5008486;28;20222;-69
2022/01/29 11:04:37;;;;;;;8.47;2.03;;;;;;;;;;5008209;28;20722;-69
2022/01/29 11:07:06;;;;;;;7.97;2.10;;;;;;;;;;5016748;28;20175;-69
2022/01/29 11:09:32;;;;;;;5.90;1.80;;;;;;;;;;5023138;28;20178;-68
2022/01/29 11:11:58;;;;;;;5.53;1.70;;;;;;;;;;5027224;28;20635;-70
2022/01/29 11:14:24;;;;;;;6.77;1.73;;;;;;;;;;5030671;28;20178;-69
2022/01/29 11:16:51;;;;;;;5.30;1.87;;;;;;;;;;5010355;28;20647;-69
2022/01/29 11:19:16;;;;;;;6.10;1.90;;;;;;;;;;5026527;28;20182;-69
2022/01/29 11:21:42;;;;;;;9.23;2.57;;;;;;;;;;5021713;28;20667;-69
2022/01/29 11:24:09;;;;;;;4.80;1.93;;;;;;;;;;5023761;28;20183;-68
2022/01/29 11:26:35;;;;;;;6.03;2.47;;;;;;;;;;5025003;28;20564;-69
2022/01/29 11:29:18;;;;;;;4.47;2.07;;;;;;;;;;5026915;28;20212;-69
2022/01/29 11:31:43;;;;;;;5.90;2.63;;;;;;;;;;5015493;28;20269;-69
2022/01/29 11:34:09;;;;;;;4.13;2.43;;;;;;;;;;5022224;28;20567;-69
2022/01/29 11:36:46;;;;;;;7.70;3.13;;;;;;;;;;5027467;28;20178;-69
2022/01/29 11:39:25;;;;;;;6.07;2.80;;;;;;;;;;5019393;28;20185;-69
2022/01/29 11:42:09;;;;;;;5.70;2.60;;;;;;;;;;5029518;28;20581;-69
2022/01/29 11:44:34;;;;;;;6.43;2.67;;;;;;;;;;5025852;28;20256;-69
2022/01/29 11:47:19;;;;;;;6.13;2.33;;;;;;;;;;5024349;28;20183;-69
2022/01/29 11:49:44;;;;;;;5.17;2.43;;;;;;;;;;5011078;28;20267;-69
2022/01/29 11:52:22;;;;;;;4.37;2.27;;;;;;;;;;5029834;28;20735;-68
2022/01/29 11:55:03;;;;;;;6.67;2.50;;;;;;;;;;5036764;28;20195;-67
2022/01/29 11:57:28;;;;;;;4.40;2.00;;;;;;;;;;5013100;28;20269;-69
2022/01/29 11:59:53;;;;;;;7.93;3.47;;;;;;;;;;5004963;28;20185;-68
2022/01/29 12:02:18;;;;;;;6.88;2.10;;;;;;;;;;5025280;28;20627;-69
2022/01/29 12:04:55;;;;;;;6.50;2.17;;;;;;;;;;5023914;28;20207;-69
2022/01/29 12:07:31;;;;;;;7.75;2.28;;;;;;;;;;5021563;28;20174;-69
2022/01/29 12:10:07;;;;;;;6.53;2.60;;;;;;;;;;5011479;28;20272;-68
2022/01/29 12:12:34;;;;;;;4.70;1.90;;;;;;;;;;5023877;28;20273;-67
2022/01/29 12:15:08;;;;;;;3.73;1.93;;;;;;;;;;5005734;28;20178;-68
2022/01/29 12:17:49;;;;;;;7.63;2.23;;;;;;;;;;5011392;28;20253;-69
2022/01/29 12:20:16;;;;;;;7.53;2.47;;;;;;;;;;5001262;28;20215;-69
2022/01/29 12:22:41;;;;;;;4.33;2.20;;;;;;;;;;5027698;28;20579;-68
2022/01/29 12:25:11;;;;;;;6.20;2.30;;;;;;;;;;5025373;28;20296;-68
2022/01/29 12:27:40;;;;;;;8.50;2.07;;;;;;;;;;5023501;28;20228;-70
2022/01/29 12:30:06;;;;;;;4.10;1.77;;;;;;;;;;5023460;28;20183;-69
2022/01/29 12:32:31;;;;;;;4.37;2.30;;;;;;;;;;5028781;28;20225;-67
2022/01/29 12:34:58;;;;;;;5.93;1.97;;;;;;;;;;5028238;28;20674;-68
2022/01/29 12:37:23;;;;;;;7.77;1.87;;;;;;;;;;5007772;28;20201;-69
2022/01/29 12:39:49;;;;;;;5.67;2.10;;;;;;;;;;5029382;28;20174;-68
2022/01/29 12:44:41;;;;;;;4.53;1.87;;;;;;;;;;5028505;28;20252;-67
2022/01/29 12:47:07;;;;;;;9.17;2.10;;;;;;;;;;5024908;28;20517;-67
2022/01/29 12:49:39;;;;;;;6.45;1.63;;;;;;;;;;5025279;28;20242;-68
2022/01/29 12:52:06;;;;;;;7.03;2.15;;;;;;;;;;5027686;28;20194;-68
2022/01/29 12:54:34;;;;;;;4.45;1.90;;;;;;;;;;5028944;28;20189;-69
2022/01/29 12:57:00;;;;;;;5.13;1.55;;;;;;;;;;5028668;28;20314;-69
2022/01/29 12:59:25;;;;;;;8.95;2.15;;;;;;;;;;5002557;28;20381;-69
2022/01/29 13:04:28;;;;;;;5.13;2.35;;;;;;;;;;5023464;28;20312;-71
2022/01/29 13:07:01;;;;;;;5.28;2.03;;;;;;;;;;5032042;28;20643;-71
2022/01/29 13:09:27;;;;;;;7.38;2.00;;;;;;;;;;5033277;28;20252;-72
2022/01/29 13:11:56;;;;;;;6.82;1.83;;;;;;;;;;5035377;28;20186;-72
2022/01/29 13:14:21;;;;;;;4.40;1.90;;;;;;;;;;5029193;28;20197;-71
2022/01/29 13:16:48;;;;;;;8.18;2.58;;;;;;;;;;5010937;28;20187;-72
2022/01/29 13:19:14;;;;;;;5.82;2.00;;;;;;;;;;5031294;28;20737;-71
2022/01/29 13:21:40;;;;;;;8.43;2.77;;;;;;;;;;5013038;28;20186;-71
2022/01/29 13:24:24;;;;;;;3.85;2.15;;;;;;;;;;5032858;28;20199;-71
2022/01/29 13:27:08;;;;;;;5.83;1.97;;;;;;;;;;5029336;28;20281;-71
2022/01/29 13:29:34;;;;;;;7.90;2.40;;;;;;;;;;5032095;28;20174;-72
2022/01/29 13:32:00;;;;;;;7.25;1.77;;;;;;;;;;5033360;28;20206;-71
2022/01/29 13:34:26;;;;;;;3.17;1.43;;;;;;;;;;5031476;28;20182;-71
2022/01/29 13:36:51;;;;;;;2.83;1.97;;;;;;;;;;5032899;28;20188;-70
2022/01/29 13:39:18;;;;;;;9.38;2.42;;;;;;;;;;5017178;28;20273;-71
2022/01/29 13:41:43;;;;;;;5.50;1.80;;;;;;;;;;5029217;28;20571;-71
2022/01/29 13:44:09;;;;;;;7.67;2.27;;;;;;;;;;5032783;28;20198;-71
2022/01/29 13:46:35;;;;;;;7.87;3.10;;;;;;;;;;5029894;28;20221;-71
2022/01/29 13:49:03;;;;;;;8.30;1.83;;;;;;;;;;5033065;28;20585;-71
2022/01/29 13:51:31;;;;;;;5.97;2.03;;;;;;;;;;5011788;28;20598;-72
2022/01/29 13:53:58;;;;;;;7.80;2.50;;;;;;;;;;5011736;28;20684;-70
2022/01/29 13:56:24;;;;;;;4.57;1.47;;;;;;;;;;5030729;28;20187;-70
2022/01/29 13:58:56;;;;;;;9.00;2.50;;;;;;;;;;5026681;28;20612;-71
2022/01/29 14:01:40;;;;;;;8.30;1.67;;;;;;;;;;5010569;28;20566;-70
2022/01/29 14:04:06;;;;;;;3.37;1.57;;;;;;;;;;5027589;28;20202;-70
2022/01/29 14:06:46;;;;;;;5.17;1.40;;;;;;;;;;5028672;28;20720;-70
2022/01/29 14:09:12;;;;;;;7.07;1.98;;;;;;;;;;5031981;28;20762;-70
2022/01/29 14:11:56;;;;;;;3.03;1.23;;;;;;;;;;5030677;28;20233;-71
2022/01/29 14:14:22;;;;;;;5.43;1.33;;;;;;;;;;5011431;28;20178;-71
2022/01/29 14:16:47;;;;;;;7.67;1.70;;;;;;;;;;5030417;28;20265;-70
2022/01/29 14:19:16;;;;;;;7.87;1.70;;;;;;;;;;5028030;28;20232;-70
2022/01/29 14:21:41;;;;;;;8.37;1.60;;;;;;;;;;5009725;28;20602;-70
2022/01/29 14:24:06;;;;;;;4.13;1.47;;;;;;;;;;5030422;28;20198;-71
2022/01/29 14:26:32;;;;;;;4.00;1.53;;;;;;;;;;5031476;28;20170;-71
2022/01/29 14:28:57;;;;;;;7.73;2.10;;;;;;;;;;5021859;28;20205;-71
2022/01/29 14:31:23;;;;;;;5.50;1.70;;;;;;;;;;5021807;28;20597;-69
2022/01/29 14:33:48;;;;;;;5.40;2.00;;;;;;;;;;5030248;28;20220;-72
2022/01/29 14:36:13;;;;;;;5.87;1.87;;;;;;;;;;5027659;28;20183;-70
2022/01/29 14:38:38;;;;;;;5.30;1.80;;;;;;;;;;5023348;28;20190;-70
2022/01/29 14:41:03;;;;;;;6.40;1.73;;;;;;;;;;5027219;28;20194;-70
2022/01/29 14:43:29;;;;;;;7.43;3.67;;;;;;;;;;5030248;28;20190;-72